createdAt,value
2023-01-05T00:00:48.437Z,99650.55
2023-01-05T00:01:51.015Z,99657.39
2023-01-05T00:02:54.060Z,99650.48
2023-01-05T00:03:56.218Z,99652.19
2023-01-05T00:04:58.680Z,99643.67
2023-01-05T00:06:07.088Z,99645.35
2023-01-05T00:07:09.400Z,99644.42
2023-01-05T00:08:13.801Z,99641.84
2023-01-05T00:09:18.781Z,99630.83
2023-01-05T00:10:39.607Z,99630.83
2023-01-05T00:12:00.945Z,99643.66
2023-01-05T00:13:21.716Z,99631.59
2023-01-05T00:14:45.976Z,99631.69
2023-01-05T00:16:07.479Z,99631.75
2023-01-05T00:17:31.508Z,99622.30
2023-01-05T00:18:52.394Z,99624.79
2023-01-05T00:20:13.043Z,99617.94
2023-01-05T00:21:34.140Z,99617.80
2023-01-05T00:22:40.010Z,99612.52
2023-01-05T00:23:42.042Z,99600.58
2023-01-05T00:24:45.242Z,99596.39
2023-01-05T00:25:47.219Z,99599.03
2023-01-05T00:26:49.316Z,99593.09
2023-01-05T00:27:53.788Z,99591.26
2023-01-05T00:28:55.976Z,99584.35
2023-01-05T00:29:58.763Z,99583.69
2023-01-05T00:31:01.099Z,99580.33
2023-01-05T00:32:03.098Z,99570.15
2023-01-05T00:33:07.885Z,99567.54
2023-01-05T00:34:09.948Z,99561.63
2023-01-05T00:35:14.059Z,99568.59
2023-01-05T00:36:16.904Z,99566.80
2023-01-05T00:37:19.075Z,99563.44
2023-01-05T00:38:21.123Z,99561.67
2023-01-05T00:39:23.189Z,99547.12
2023-01-05T00:40:25.368Z,99548.84
2023-01-05T00:41:28.508Z,99544.53
2023-01-05T00:42:30.786Z,99551.28
2023-01-05T00:43:32.987Z,99537.73
2023-01-05T00:44:35.060Z,99531.69
2023-01-05T00:45:37.688Z,99530.84
2023-01-05T00:46:40.104Z,99527.50
2023-01-05T00:47:42.516Z,99518.16
2023-01-05T00:48:44.503Z,99526.73
2023-01-05T00:49:46.537Z,99514.80
2023-01-05T00:50:51.819Z,99519.93
2023-01-05T00:51:58.534Z,99513.92
2023-01-05T00:53:00.696Z,99499.45
2023-01-05T00:54:06.698Z,99503.73
2023-01-05T00:55:09.888Z,99494.42
2023-01-05T00:56:14.345Z,99492.79
2023-01-05T00:57:16.803Z,99493.55
2023-01-05T00:58:18.870Z,99493.53
2023-01-05T00:59:20.934Z,99492.63
2023-01-05T01:00:24.009Z,99493.39
2023-01-05T01:01:26.778Z,99494.25
2023-01-05T01:02:30.059Z,99488.50
2023-01-05T01:03:32.365Z,99488.50
2023-01-05T01:04:35.267Z,99486.78
2023-01-05T01:05:38.664Z,99486.80
2023-01-05T01:06:41.230Z,99481.70
2023-01-05T01:07:43.325Z,99475.74
2023-01-05T01:08:45.340Z,99474.97
2023-01-05T01:09:47.392Z,99464.73
2023-01-05T01:10:49.803Z,99462.88
2023-01-05T01:11:51.888Z,99461.16
2023-01-05T01:12:54.498Z,99461.16
2023-01-05T01:13:57.184Z,99451.69
2023-01-05T01:14:59.906Z,99447.33
2023-01-05T01:16:10.360Z,99445.56
2023-01-05T01:17:12.955Z,99447.34
2023-01-05T01:18:15.480Z,99436.17
2023-01-05T01:19:20.399Z,99428.52
2023-01-05T01:20:23.478Z,99427.57
2023-01-05T01:21:26.305Z,99433.56
2023-01-05T01:22:28.710Z,99424.09
2023-01-05T01:23:33.555Z,99423.25
2023-01-05T01:24:35.959Z,99419.82
2023-01-05T01:25:39.303Z,99418.93
2023-01-05T01:26:41.602Z,99419.70
2023-01-05T01:27:43.817Z,99416.28
2023-01-05T01:28:49.056Z,99411.16
2023-01-05T01:29:51.120Z,99412.91
2023-01-05T01:30:53.305Z,99397.61
2023-01-05T01:31:55.899Z,99407.87
2023-01-05T01:32:58.429Z,99404.47
2023-01-05T01:34:01.612Z,99406.20
2023-01-05T01:35:04.791Z,99399.34
2023-01-05T01:36:09.181Z,99392.48
2023-01-05T01:37:12.499Z,99395.91
2023-01-05T01:38:16.945Z,99383.13
2023-01-05T01:39:19.574Z,99381.37
2023-01-05T01:40:24.019Z,99388.16
2023-01-05T01:41:26.648Z,99378.80
2023-01-05T01:42:29.059Z,99370.22
2023-01-05T01:43:46.904Z,99375.37
2023-01-05T01:44:59.615Z,99373.67
2023-01-05T01:46:03.963Z,99373.73
2023-01-05T01:47:06.192Z,99385.60
2023-01-05T01:48:12.182Z,99381.25
2023-01-05T01:49:15.255Z,99371.86
2023-01-05T01:50:23.019Z,99365.09
2023-01-05T01:51:31.602Z,99350.55
2023-01-05T01:52:35.187Z,99346.25
2023-01-05T01:53:44.008Z,99334.45
2023-01-05T01:54:47.944Z,99334.45
2023-01-05T01:55:53.138Z,99337.91
2023-01-05T01:56:56.020Z,99321.66
2023-01-05T01:58:01.086Z,99322.41
2023-01-05T01:59:03.656Z,99317.25
2023-01-05T02:00:09.184Z,99321.54
2023-01-05T02:01:20.462Z,99309.45
2023-01-05T02:02:23.234Z,99302.70
2023-01-05T02:03:28.718Z,99301.70
2023-01-05T02:04:33.367Z,99297.50
2023-01-05T02:05:37.528Z,99293.20
2023-01-05T02:06:39.860Z,99292.41
2023-01-05T02:07:47.130Z,99288.98
2023-01-05T02:08:49.811Z,99292.37
2023-01-05T02:09:52.166Z,99288.08
2023-01-05T02:11:01.202Z,99284.55
2023-01-05T02:12:22.387Z,99288.88
2023-01-05T02:14:01.739Z,99284.61
2023-01-05T02:15:07.807Z,99287.91
2023-01-05T02:16:23.753Z,99271.63
2023-01-05T02:17:33.745Z,99269.02
2023-01-05T02:19:09.119Z,99268.87
2023-01-05T02:20:38.019Z,99267.22
2023-01-05T02:21:59.053Z,99273.28
2023-01-05T02:23:17.030Z,99263.09
2023-01-05T02:26:13.147Z,99245.75
2023-01-05T02:27:22.103Z,99245.94
2023-01-05T02:28:44.741Z,99238.09
2023-01-05T02:30:06.026Z,99225.27
2023-01-05T02:31:14.784Z,99220.06
2023-01-05T02:32:31.490Z,99225.04
2023-01-05T02:33:57.432Z,99221.53
2023-01-05T02:35:26.972Z,99219.16
2023-01-05T02:36:41.954Z,99217.38
2023-01-05T02:37:50.532Z,99220.02
2023-01-05T02:39:02.496Z,99220.93
2023-01-05T02:40:19.505Z,99211.54
2023-01-05T02:41:34.472Z,99205.54
2023-01-05T02:42:41.515Z,99199.55
2023-01-05T02:43:45.583Z,99197.06
2023-01-05T02:44:48.249Z,99197.02
2023-01-05T02:45:50.414Z,99189.20
2023-01-05T02:47:04.251Z,99186.47
2023-01-05T02:48:06.563Z,99183.08
2023-01-05T02:49:09.001Z,99181.46
2023-01-05T02:50:25.187Z,99196.78
2023-01-05T02:51:31.075Z,99183.20
2023-01-05T02:52:36.763Z,99188.45
2023-01-05T02:53:42.598Z,99186.64
2023-01-05T02:54:48.684Z,99183.20
2023-01-05T02:56:13.449Z,99185.06
2023-01-05T02:57:27.439Z,99184.34
2023-01-05T02:58:36.272Z,99179.81
2023-01-05T02:59:42.844Z,99177.16
2023-01-05T03:00:52.062Z,99167.02
2023-01-05T03:02:04.620Z,99166.16
2023-01-05T03:03:13.404Z,99164.50
2023-01-05T03:05:37.539Z,99159.05
2023-01-05T03:06:52.081Z,99150.48
2023-01-05T03:07:58.491Z,99145.42
2023-01-05T03:09:04.720Z,99147.13
2023-01-05T03:10:28.195Z,99147.95
2023-01-05T03:11:53.248Z,99146.34
2023-01-05T03:13:19.689Z,99143.98
2023-01-05T03:14:25.791Z,99139.72
2023-01-05T03:15:31.672Z,99128.00
2023-01-05T03:16:37.319Z,99127.14
2023-01-05T03:17:44.120Z,99121.77
2023-01-05T03:19:07.961Z,99120.81
2023-01-05T03:20:13.698Z,99107.94
2023-01-05T03:21:15.934Z,99100.16
2023-01-05T03:22:40.539Z,99101.98
2023-01-05T03:24:02.288Z,99089.91
2023-01-05T03:25:26.333Z,99091.42
2023-01-05T03:26:48.770Z,99090.41
2023-01-05T03:28:13.235Z,99083.49
2023-01-05T03:29:34.652Z,99069.01
2023-01-05T03:31:03.127Z,99064.10
2023-01-05T03:32:33.098Z,99061.41
2023-01-05T03:33:56.699Z,99049.27
2023-01-05T03:35:29.799Z,99045.97
2023-01-05T03:36:38.912Z,99038.45
2023-01-05T03:38:05.964Z,99043.54
2023-01-05T03:39:10.901Z,99041.66
2023-01-05T03:40:26.915Z,99042.63
2023-01-05T03:41:31.500Z,99039.92
2023-01-05T03:42:34.025Z,99031.98
2023-01-05T03:43:39.098Z,99025.38
2023-01-05T03:44:46.636Z,99027.95
2023-01-05T03:45:54.016Z,99035.66
2023-01-05T03:46:58.147Z,99034.01
2023-01-05T03:48:00.654Z,99020.25
2023-01-05T03:49:03.768Z,99027.05
2023-01-05T03:50:07.791Z,99027.27
2023-01-05T03:51:10.264Z,99028.88
2023-01-05T03:52:13.899Z,99016.09
2023-01-05T03:53:17.818Z,99010.18
2023-01-05T03:54:20.651Z,99006.80
2023-01-05T03:55:22.896Z,99002.53
2023-01-05T03:56:27.241Z,98987.38
2023-01-05T03:57:31.323Z,98987.38
2023-01-05T03:58:34.993Z,98991.73
2023-01-05T03:59:37.242Z,98983.44
2023-01-05T04:00:39.954Z,98982.70
2023-01-05T04:01:42.476Z,98989.70
2023-01-05T04:02:46.696Z,98977.08
2023-01-05T04:03:51.524Z,98973.59
2023-01-05T04:04:53.954Z,98976.20
2023-01-05T04:05:57.686Z,98974.59
2023-01-05T04:07:01.849Z,98961.77
2023-01-05T04:08:06.851Z,98961.64
2023-01-05T04:09:10.248Z,98955.55
2023-01-05T04:10:15.449Z,98953.08
2023-01-05T04:11:20.899Z,98935.73
2023-01-05T04:12:24.989Z,98939.84
2023-01-05T04:13:27.320Z,98948.36
2023-01-05T04:14:30.056Z,98945.80
2023-01-05T04:15:33.753Z,98946.07
2023-01-05T04:16:38.141Z,98945.30
2023-01-05T04:17:54.432Z,98932.25
2023-01-05T04:18:56.594Z,98931.33
2023-01-05T04:19:59.086Z,98932.23
2023-01-05T04:21:02.267Z,98927.89
2023-01-05T04:22:05.239Z,98930.69
2023-01-05T04:23:07.452Z,98926.44
2023-01-05T04:24:11.347Z,98920.67
2023-01-05T04:25:14.748Z,98914.52
2023-01-05T04:26:18.815Z,98917.92
2023-01-05T04:27:22.684Z,98920.43
2023-01-05T04:28:26.460Z,98919.06
2023-01-05T04:29:29.628Z,98919.06
2023-01-05T04:30:33.240Z,98904.50
2023-01-05T04:31:36.773Z,98911.19
2023-01-05T04:32:39.337Z,98906.20
2023-01-05T04:33:45.985Z,98896.73
2023-01-05T04:34:50.142Z,98895.03
2023-01-05T04:35:54.749Z,98897.64
2023-01-05T04:36:59.221Z,98894.34
2023-01-05T04:38:01.486Z,98885.92
2023-01-05T04:39:03.704Z,98883.37
2023-01-05T04:40:07.680Z,98885.14
2023-01-05T04:41:11.939Z,98883.50
2023-01-05T04:42:15.708Z,98875.13
2023-01-05T04:43:19.884Z,98869.95
2023-01-05T04:44:23.826Z,98863.91
2023-01-05T04:45:26.417Z,98870.73
2023-01-05T04:46:29.036Z,98861.45
2023-01-05T04:47:31.590Z,98858.09
2023-01-05T04:48:34.174Z,98857.47
2023-01-05T04:49:36.792Z,98858.19
2023-01-05T04:50:40.532Z,98856.41
2023-01-05T04:51:42.947Z,98845.28
2023-01-05T04:52:45.232Z,98832.39
2023-01-05T04:53:47.830Z,98828.13
2023-01-05T04:54:52.201Z,98822.86
2023-01-05T04:55:54.507Z,98818.51
2023-01-05T04:56:57.139Z,98821.80
2023-01-05T04:57:59.151Z,98808.11
2023-01-05T04:59:01.320Z,98819.03
2023-01-05T05:00:05.084Z,98812.22
2023-01-05T05:01:08.671Z,98812.17
2023-01-05T05:02:12.166Z,98807.82
2023-01-05T05:03:16.624Z,98811.05
2023-01-05T05:04:19.158Z,98804.03
2023-01-05T05:05:23.187Z,98793.10
2023-01-05T05:06:27.176Z,98792.28
2023-01-05T05:07:30.261Z,98794.95
2023-01-05T05:08:34.170Z,98795.15
2023-01-05T05:09:37.134Z,98801.88
2023-01-05T05:10:40.066Z,98790.06
2023-01-05T05:11:43.321Z,98780.70
2023-01-05T05:12:45.437Z,98784.17
2023-01-05T05:13:48.383Z,98785.66
2023-01-05T05:14:50.584Z,98777.05
2023-01-05T05:15:52.830Z,98779.83
2023-01-05T05:16:55.193Z,98779.10
2023-01-05T05:17:57.185Z,98776.49
2023-01-05T05:18:59.697Z,98785.19
2023-01-05T05:20:03.349Z,98783.45
2023-01-05T05:21:06.512Z,98775.72
2023-01-05T05:22:10.660Z,98774.18
2023-01-05T05:23:12.745Z,98762.12
2023-01-05T05:24:15.598Z,98775.09
2023-01-05T05:25:19.928Z,98770.02
2023-01-05T05:26:23.199Z,98766.63
2023-01-05T05:27:25.754Z,98750.24
2023-01-05T05:28:28.697Z,98765.70
2023-01-05T05:29:30.835Z,98761.61
2023-01-05T05:30:33.248Z,98773.41
2023-01-05T05:31:36.228Z,98753.68
2023-01-05T05:32:43.980Z,98746.81
2023-01-05T05:33:43.408Z,98753.05
2023-01-05T05:34:45.478Z,98746.95
2023-01-05T05:35:47.557Z,98736.91
2023-01-05T05:36:50.361Z,98736.91
2023-01-05T05:37:56.352Z,98742.70
2023-01-05T05:38:57.723Z,98748.16
2023-01-05T05:39:59.896Z,98740.48
2023-01-05T05:41:01.926Z,98752.38
2023-01-05T05:42:04.155Z,98749.81
2023-01-05T05:43:07.030Z,98749.08
2023-01-05T05:44:09.199Z,98725.73
2023-01-05T05:45:11.951Z,98712.98
2023-01-05T05:46:14.503Z,98715.44
2023-01-05T05:47:16.675Z,98699.30
2023-01-05T05:48:19.187Z,98722.45
2023-01-05T05:49:21.418Z,98704.63
2023-01-05T05:50:24.471Z,98713.94
2023-01-05T05:51:27.822Z,98708.86
2023-01-05T05:52:30.059Z,98713.07
2023-01-05T05:53:32.177Z,98707.80
2023-01-05T05:54:34.322Z,98692.33
2023-01-05T05:55:36.387Z,98694.78
2023-01-05T05:56:38.996Z,98700.02
2023-01-05T05:57:41.632Z,98699.23
2023-01-05T05:58:44.674Z,98700.98
2023-01-05T05:59:46.927Z,98687.36
2023-01-05T06:00:49.583Z,98684.64
2023-01-05T06:01:52.002Z,98681.31
2023-01-05T06:02:54.587Z,98682.08
2023-01-05T06:03:57.530Z,98682.08
2023-01-05T06:04:59.613Z,98682.95
2023-01-05T06:06:02.603Z,98675.27
2023-01-05T06:07:05.855Z,98677.92
2023-01-05T06:08:08.166Z,98667.73
2023-01-05T06:09:10.492Z,98666.70
2023-01-05T06:10:13.390Z,98651.33
2023-01-05T06:11:15.679Z,98655.52
2023-01-05T06:12:18.166Z,98670.08
2023-01-05T06:13:20.763Z,98663.32
2023-01-05T06:14:22.958Z,98652.15
2023-01-05T06:15:25.184Z,98652.91
2023-01-05T06:16:28.702Z,98647.67
2023-01-05T06:17:30.927Z,98647.67
2023-01-05T06:18:34.938Z,98651.11
2023-01-05T06:19:38.894Z,98640.81
2023-01-05T06:20:41.721Z,98635.73
2023-01-05T06:21:44.423Z,98649.52
2023-01-05T06:22:46.731Z,98649.52
2023-01-05T06:23:48.972Z,98636.77
2023-01-05T06:24:50.955Z,98623.13
2023-01-05T06:25:53.146Z,98632.20
2023-01-05T06:26:56.044Z,98642.77
2023-01-05T06:27:58.569Z,98646.20
2023-01-05T06:29:00.776Z,98637.74
2023-01-05T06:30:03.860Z,98632.63
2023-01-05T06:31:06.287Z,98635.24
2023-01-05T06:32:08.328Z,98629.15
2023-01-05T06:33:10.422Z,98629.15
2023-01-05T06:34:12.667Z,98612.02
2023-01-05T06:35:14.983Z,98609.28
2023-01-05T06:36:17.439Z,98607.38
2023-01-05T06:37:21.178Z,98612.56
2023-01-05T06:38:24.993Z,98613.22
2023-01-05T06:39:27.219Z,98616.66
2023-01-05T06:40:29.455Z,98623.57
2023-01-05T06:41:31.698Z,98609.12
2023-01-05T06:42:33.994Z,98616.59
2023-01-05T06:43:35.983Z,98616.76
2023-01-05T06:44:37.954Z,98614.41
2023-01-05T06:45:40.314Z,98603.23
2023-01-05T06:46:42.590Z,98602.26
2023-01-05T06:47:44.760Z,98597.06
2023-01-05T06:48:46.730Z,98610.83
2023-01-05T06:49:48.683Z,98598.77
2023-01-05T06:50:50.823Z,98599.46
2023-01-05T06:51:53.086Z,98597.84
2023-01-05T06:52:55.407Z,98586.77
2023-01-05T06:53:57.647Z,98576.39
2023-01-05T06:55:00.142Z,98579.02
2023-01-05T06:56:03.420Z,98591.72
2023-01-05T06:57:06.431Z,98600.29
2023-01-05T06:58:09.686Z,98601.92
2023-01-05T06:59:12.511Z,98602.73
2023-01-05T07:00:16.168Z,98607.27
2023-01-05T07:01:19.410Z,98595.21
2023-01-05T07:02:22.309Z,98587.35
2023-01-05T07:03:25.689Z,98589.87
2023-01-05T07:04:28.273Z,98589.11
2023-01-05T07:05:31.067Z,98613.98
2023-01-05T07:06:35.391Z,98587.35
2023-01-05T07:07:38.332Z,98573.73
2023-01-05T07:08:40.517Z,98570.22
2023-01-05T07:09:44.461Z,98561.66
2023-01-05T07:10:47.197Z,98571.97
2023-01-05T07:11:50.044Z,98572.73
2023-01-05T07:12:52.348Z,98572.73
2023-01-05T07:13:54.589Z,98570.11
2023-01-05T07:14:58.087Z,98583.56
2023-01-05T07:16:00.444Z,98580.20
2023-01-05T07:17:02.883Z,98582.13
2023-01-05T07:18:05.288Z,98570.11
2023-01-05T07:19:07.511Z,98571.85
2023-01-05T07:20:11.480Z,98559.79
2023-01-05T07:21:13.874Z,98561.47
2023-01-05T07:22:16.122Z,98568.42
2023-01-05T07:23:19.599Z,98568.36
2023-01-05T07:24:21.749Z,98560.73
2023-01-05T07:25:23.824Z,98545.16
2023-01-05T07:26:26.767Z,98549.30
2023-01-05T07:27:28.994Z,98530.42
2023-01-05T07:28:32.369Z,98539.85
2023-01-05T07:29:35.704Z,98545.78
2023-01-05T07:30:38.083Z,98540.78
2023-01-05T07:31:40.345Z,98526.16
2023-01-05T07:32:42.944Z,98544.86
2023-01-05T07:33:45.222Z,98534.42
2023-01-05T07:34:55.314Z,98534.42
2023-01-05T07:35:52.422Z,98542.29
2023-01-05T07:36:55.468Z,98538.92
2023-01-05T07:37:57.736Z,98547.49
2023-01-05T07:38:59.801Z,98545.73
2023-01-05T07:40:02.063Z,98538.80
2023-01-05T07:41:04.633Z,98531.74
2023-01-05T07:42:07.290Z,98548.06
2023-01-05T07:43:11.345Z,98566.14
2023-01-05T07:44:13.197Z,98543.80
2023-01-05T07:45:15.175Z,98528.30
2023-01-05T07:46:17.649Z,98547.19
2023-01-05T07:47:19.867Z,98520.61
2023-01-05T07:48:23.986Z,98526.54
2023-01-05T07:49:26.783Z,98518.79
2023-01-05T07:50:29.515Z,98520.47
2023-01-05T07:51:32.711Z,98512.70
2023-01-05T07:52:34.893Z,98521.03
2023-01-05T07:53:43.879Z,98516.59
2023-01-05T07:54:41.954Z,98513.81
2023-01-05T07:55:43.973Z,98533.30
2023-01-05T07:56:46.692Z,98517.89
2023-01-05T07:57:48.610Z,98525.52
2023-01-05T07:58:50.610Z,98521.20
2023-01-05T07:59:52.675Z,98510.92
2023-01-05T08:00:55.892Z,98514.23
2023-01-05T08:01:58.232Z,98514.25
2023-01-05T08:03:00.341Z,98501.42
2023-01-05T08:04:03.501Z,98505.78
2023-01-05T08:05:06.563Z,98504.70
2023-01-05T08:06:12.837Z,98508.16
2023-01-05T08:07:15.211Z,98496.15
2023-01-05T08:08:24.028Z,98485.00
2023-01-05T08:09:39.733Z,98487.50
2023-01-05T08:10:43.283Z,98486.68
2023-01-05T08:11:45.244Z,98479.86
2023-01-05T08:13:05.795Z,98477.30
2023-01-05T08:14:07.924Z,98479.86
2023-01-05T08:15:10.247Z,98473.79
2023-01-05T08:16:13.448Z,98468.52
2023-01-05T08:17:15.646Z,98465.41
2023-01-05T08:18:18.049Z,98464.52
2023-01-05T08:19:20.136Z,98466.77
2023-01-05T08:20:22.224Z,98470.22
2023-01-05T08:21:24.467Z,98451.37
2023-01-05T08:22:26.882Z,98456.50
2023-01-05T08:23:28.776Z,98451.28
2023-01-05T08:24:30.939Z,98452.11
2023-01-05T08:25:33.482Z,98452.22
2023-01-05T08:26:37.011Z,98450.42
2023-01-05T08:27:39.228Z,98442.78
2023-01-05T08:28:42.443Z,98441.75
2023-01-05T08:29:44.713Z,98456.95
2023-01-05T08:30:47.128Z,98440.59
2023-01-05T08:31:49.420Z,98449.70
2023-01-05T08:32:51.517Z,98448.15
2023-01-05T08:33:59.360Z,98450.66
2023-01-05T08:35:01.337Z,98433.33
2023-01-05T08:36:13.212Z,98444.33
2023-01-05T08:37:16.528Z,98441.24
2023-01-05T08:38:24.151Z,98441.98
2023-01-05T08:39:27.080Z,98450.45
2023-01-05T08:40:29.622Z,98426.35
2023-01-05T08:41:35.647Z,98426.35
2023-01-05T08:42:37.828Z,98436.44
2023-01-05T08:43:39.851Z,98446.56
2023-01-05T08:44:42.897Z,98459.53
2023-01-05T08:45:52.014Z,98435.62
2023-01-05T08:46:54.367Z,98428.58
2023-01-05T08:47:56.530Z,98420.88
2023-01-05T08:49:01.299Z,98421.73
2023-01-05T08:50:06.190Z,98419.10
2023-01-05T08:51:08.458Z,98410.60
2023-01-05T08:52:10.617Z,98410.38
2023-01-05T08:53:12.655Z,98427.48
2023-01-05T08:54:14.520Z,98423.48
2023-01-05T08:55:16.735Z,98408.27
2023-01-05T08:56:20.258Z,98417.98
2023-01-05T08:57:22.434Z,98406.06
2023-01-05T08:58:24.458Z,98406.72
2023-01-05T08:59:27.201Z,98418.72
2023-01-05T09:00:29.510Z,98402.38
2023-01-05T09:01:32.332Z,98410.28
2023-01-05T09:02:34.890Z,98395.09
2023-01-05T09:03:38.132Z,98402.14
2023-01-05T09:04:40.597Z,98404.25
2023-01-05T09:05:42.743Z,98402.70
2023-01-05T09:06:45.094Z,98405.67
2023-01-05T09:07:48.142Z,98391.07
2023-01-05T09:08:50.187Z,98385.04
2023-01-05T09:09:52.768Z,98380.13
2023-01-05T09:10:55.049Z,98378.31
2023-01-05T09:11:57.243Z,98387.05
2023-01-05T09:12:59.354Z,98369.36
2023-01-05T09:14:02.929Z,98372.45
2023-01-05T09:15:07.318Z,98365.53
2023-01-05T09:16:12.459Z,98362.17
2023-01-05T09:17:16.090Z,98383.36
2023-01-05T09:18:18.319Z,98367.83
2023-01-05T09:19:20.256Z,98362.45
2023-01-05T09:20:22.444Z,98369.04
2023-01-05T09:21:24.951Z,98356.29
2023-01-05T09:22:27.388Z,98345.90
2023-01-05T09:23:30.565Z,98363.70
2023-01-05T09:24:33.794Z,98352.41
2023-01-05T09:25:38.501Z,98350.59
2023-01-05T09:26:42.114Z,98341.64
2023-01-05T09:27:45.286Z,98339.71
2023-01-05T09:28:47.715Z,98347.14
2023-01-05T09:29:49.838Z,98345.22
2023-01-05T09:30:51.830Z,98333.13
2023-01-05T09:31:53.908Z,98340.89
2023-01-05T09:32:56.051Z,98342.32
2023-01-05T09:33:59.870Z,98337.13
2023-01-05T09:35:02.538Z,98354.18
2023-01-05T09:36:06.325Z,98338.03
2023-01-05T09:37:08.628Z,98330.05
2023-01-05T09:38:10.776Z,98318.80
2023-01-05T09:39:13.051Z,98320.14
2023-01-05T09:40:15.589Z,98325.03
2023-01-05T09:41:21.944Z,98323.35
2023-01-05T09:42:26.991Z,98329.66
2023-01-05T09:43:35.594Z,98313.31
2023-01-05T09:44:44.605Z,98337.45
2023-01-05T09:45:51.060Z,98307.41
2023-01-05T09:46:56.648Z,98311.18
2023-01-05T09:48:00.751Z,98302.63
2023-01-05T09:49:06.331Z,98317.56
2023-01-05T09:50:21.379Z,98293.34
2023-01-05T09:51:24.837Z,98294.27
2023-01-05T09:52:30.435Z,98299.34
2023-01-05T09:53:32.025Z,98305.32
2023-01-05T09:54:34.248Z,98284.72
2023-01-05T09:55:37.564Z,98284.88
2023-01-05T09:57:08.428Z,98293.61
2023-01-05T09:58:02.461Z,98298.64
2023-01-05T09:59:20.617Z,98287.52
2023-01-05T10:00:25.025Z,98288.90
2023-01-05T10:01:27.320Z,98290.66
2023-01-05T10:02:33.355Z,98288.86
2023-01-05T10:04:02.969Z,98275.52
2023-01-05T10:04:44.261Z,98289.09
2023-01-05T10:05:48.191Z,98285.86
2023-01-05T10:06:54.187Z,98282.38
2023-01-05T10:08:06.118Z,98269.47
2023-01-05T10:09:11.018Z,98266.81
2023-01-05T10:10:48.446Z,98276.96
2023-01-05T10:12:15.886Z,98289.22
2023-01-05T10:13:24.477Z,98275.28
2023-01-05T10:14:39.747Z,98267.48
2023-01-05T10:15:47.183Z,98268.02
2023-01-05T10:16:57.669Z,98273.99
2023-01-05T10:17:54.812Z,98268.41
2023-01-05T10:18:58.952Z,98260.17
2023-01-05T10:20:01.138Z,98261.02
2023-01-05T10:21:25.148Z,98263.14
2023-01-05T10:22:38.976Z,98248.23
2023-01-05T10:24:03.355Z,98260.17
2023-01-05T10:25:24.152Z,98253.22
2023-01-05T10:27:23.195Z,98257.59
2023-01-05T10:27:59.319Z,98250.99
2023-01-05T10:29:14.176Z,98243.71
2023-01-05T10:30:24.948Z,98248.34
2023-01-05T10:31:46.476Z,98248.70
2023-01-05T10:33:25.506Z,98242.11
2023-01-05T10:34:43.629Z,98244.73
2023-01-05T10:36:06.262Z,98238.64
2023-01-05T10:37:08.462Z,98228.58
2023-01-05T10:38:45.687Z,98235.72
2023-01-05T10:40:10.446Z,98240.72
2023-01-05T10:41:34.087Z,98228.97
2023-01-05T10:42:46.668Z,98228.62
2023-01-05T10:44:17.741Z,98228.62
2023-01-05T10:45:20.928Z,98224.33
2023-01-05T10:46:42.825Z,98224.45
2023-01-05T10:47:31.448Z,98220.13
2023-01-05T10:48:35.854Z,98211.50
2023-01-05T10:49:41.758Z,98220.13
2023-01-05T10:50:47.786Z,98222.77
2023-01-05T10:51:56.487Z,98217.51
2023-01-05T10:52:58.112Z,98218.33
2023-01-05T10:54:03.302Z,98218.33
2023-01-05T10:55:10.160Z,98211.23
2023-01-05T10:56:18.456Z,98211.19
2023-01-05T10:57:35.701Z,98236.86
2023-01-05T10:58:39.314Z,98213.61
2023-01-05T11:00:03.379Z,98214.19
2023-01-05T11:01:30.334Z,98216.56
2023-01-05T11:02:36.614Z,98208.75
2023-01-05T11:04:25.656Z,98209.66
2023-01-05T11:04:48.827Z,98206.95
2023-01-05T11:05:51.164Z,98210.15
2023-01-05T11:06:57.208Z,98206.67
2023-01-05T11:08:03.119Z,98205.91
2023-01-05T11:09:23.525Z,98210.97
2023-01-05T11:10:30.271Z,98222.25
2023-01-05T11:11:33.095Z,98197.36
2023-01-05T11:12:35.461Z,98203.33
2023-01-05T11:13:41.075Z,98212.57
2023-01-05T11:14:46.969Z,98196.22
2023-01-05T11:15:55.551Z,98187.30
2023-01-05T11:17:04.797Z,98199.00
2023-01-05T11:18:09.210Z,98195.65
2023-01-05T11:19:15.031Z,98187.79
2023-01-05T11:20:18.020Z,98187.79
2023-01-05T11:21:43.975Z,98205.67
2023-01-05T11:22:48.940Z,98185.05
2023-01-05T11:23:54.116Z,98184.80
2023-01-05T11:25:15.308Z,98186.44
2023-01-05T11:26:33.862Z,98190.85
2023-01-05T11:27:37.007Z,98189.95
2023-01-05T11:28:43.281Z,98183.81
2023-01-05T11:29:45.893Z,98180.39
2023-01-05T11:31:04.119Z,98183.73
2023-01-05T11:32:10.054Z,98192.16
2023-01-05T11:33:18.566Z,98175.02
2023-01-05T11:34:28.727Z,98179.35
2023-01-05T11:35:38.882Z,98185.25
2023-01-05T11:36:42.395Z,98172.06
2023-01-05T11:37:45.649Z,98171.94
2023-01-05T11:38:54.290Z,98181.42
2023-01-05T11:40:02.756Z,98165.80
2023-01-05T11:41:08.576Z,98181.18
2023-01-05T11:42:25.375Z,98165.72
2023-01-05T11:43:27.876Z,98162.23
2023-01-05T11:44:31.756Z,98170.81
2023-01-05T11:45:43.217Z,98163.98
2023-01-05T11:46:46.925Z,98167.25
2023-01-05T11:47:56.059Z,98168.16
2023-01-05T11:48:58.818Z,98160.42
2023-01-05T11:50:11.257Z,98170.73
2023-01-05T11:51:27.862Z,98165.45
2023-01-05T11:52:37.323Z,98168.02
2023-01-05T11:53:40.186Z,98161.94
2023-01-05T11:54:42.938Z,98164.37
2023-01-05T14:01:08.195Z,98103.22
2023-01-05T14:03:51.536Z,98111.45
2023-01-05T14:04:54.158Z,98108.78
2023-01-05T14:06:07.658Z,98120.77
2023-01-05T14:07:16.781Z,98114.79
2023-01-05T14:08:34.580Z,98118.95
2023-01-05T14:09:53.914Z,98120.63
2023-01-05T14:11:13.333Z,98116.29
2023-01-05T14:12:19.196Z,98128.28
2023-01-05T14:13:44.359Z,98121.27
2023-01-05T14:15:12.226Z,98121.27
2023-01-05T14:16:40.747Z,98115.98
2023-01-05T14:17:57.434Z,98119.37
2023-01-05T14:19:26.747Z,98122.04
2023-01-05T14:20:40.134Z,98118.64
2023-01-05T14:21:53.892Z,98120.99
2023-01-05T14:22:57.468Z,98120.00
2023-01-05T14:24:00.128Z,98125.16
2023-01-05T14:25:42.755Z,98115.83
2023-01-05T14:27:06.819Z,98117.47
2023-01-05T14:28:29.440Z,98122.63
2023-01-05T14:29:53.117Z,98120.67
2023-01-05T14:31:15.332Z,98118.91
2023-01-05T14:32:40.709Z,98122.35
2023-01-05T14:33:49.327Z,98125.84
2023-01-05T14:35:00.808Z,98123.17
2023-01-05T14:36:05.618Z,98122.35
2023-01-05T14:37:19.381Z,98125.84
2023-01-05T14:38:24.563Z,98118.83
2023-01-05T14:39:45.607Z,98125.61
2023-01-05T14:40:53.946Z,98125.66
2023-01-05T14:42:14.864Z,98123.84
2023-01-05T14:43:34.853Z,98120.36
2023-01-05T14:44:50.012Z,98133.17
2023-01-05T14:46:02.012Z,98111.71
2023-01-05T14:47:05.542Z,98119.27
2023-01-05T14:48:11.224Z,98114.02
2023-01-05T14:49:37.967Z,98115.88
2023-01-05T14:50:42.804Z,98124.44
2023-01-05T14:51:57.202Z,98125.43
2023-01-05T14:53:03.453Z,98120.36
2023-01-05T14:54:05.707Z,98124.61
2023-01-05T14:55:21.820Z,98122.94
2023-01-05T14:56:19.587Z,98123.08
2023-01-05T14:57:30.755Z,98120.67
2023-01-05T14:58:42.267Z,98122.49
2023-01-05T14:59:46.641Z,98127.66
2023-01-05T15:00:59.193Z,98124.30
2023-01-05T15:02:07.751Z,98127.97
2023-01-05T15:03:14.462Z,98133.13
2023-01-05T15:04:36.330Z,98130.62
2023-01-05T15:05:49.455Z,98128.78
2023-01-05T15:07:24.739Z,98127.97
2023-01-05T15:08:53.173Z,98119.55
2023-01-05T15:10:11.643Z,98119.46
2023-01-05T15:11:22.719Z,98117.73
2023-01-05T15:12:48.055Z,98135.80
2023-01-05T15:14:15.235Z,98122.04